Time;durP1;ratioP1;P1;durP2;ratioP2;P2;SDS_P1;SDS_P2;PMS_P1;PMS_P2;Temp;Humidity;BMP_temperature;BMP_pressure;BME280_temperature;BME280_humidity;BME280_pressure;Samples;Min_cycle;Max_cycle;Signal;HPM_P1;HPM_P2
2022/06/12 00:01:13;;;;;;;1.75;1.33;;;;;;;16.70;65.00;99284.31;5120281;27;20046;-75
2022/06/12 00:03:57;;;;;;;2.55;1.40;;;;;;;16.67;64.43;99279.28;5105644;27;20042;-73
2022/06/12 00:06:42;;;;;;;1.98;1.15;;;;;;;16.69;64.70;99275.56;5094675;27;20039;-75
2022/06/12 00:09:27;;;;;;;3.78;1.02;;;;;;;16.76;63.97;99273.22;5119693;27;20027;-75
2022/06/12 00:12:11;;;;;;;2.53;1.38;;;;;;;16.79;63.48;99272.97;5092088;27;20111;-75
2022/06/12 00:14:56;;;;;;;3.10;1.33;;;;;;;16.79;63.28;99277.41;5121528;27;20035;-75
2022/06/12 00:17:43;;;;;;;2.28;1.08;;;;;;;16.73;63.85;99281.41;5120096;27;20125;-75
2022/06/12 00:20:28;;;;;;;6.72;1.35;;;;;;;16.66;64.79;99282.91;5115284;27;20041;-75
2022/06/12 00:23:16;;;;;;;3.53;1.98;;;;;;;16.58;65.09;99287.03;5105682;27;20038;-74
2022/06/12 00:26:01;;;;;;;3.67;1.48;;;;;;;16.60;64.70;99284.28;5134824;27;20114;-74
2022/06/12 00:28:47;;;;;;;1.55;1.10;;;;;;;16.59;65.23;99280.81;5134967;27;20485;-76
2022/06/12 00:31:32;;;;;;;2.88;1.13;;;;;;;16.56;65.42;99285.50;5115843;27;21508;-73
2022/06/12 00:34:20;;;;;;;2.25;1.30;;;;;;;16.60;64.36;99281.63;5110934;27;20058;-75
2022/06/12 00:37:06;;;;;;;2.97;1.30;;;;;;;16.65;64.45;99279.44;5102960;27;20051;-74
2022/06/12 00:39:54;;;;;;;2.08;1.30;;;;;;;16.63;64.94;99284.00;5134192;27;20058;-73
2022/06/12 00:42:47;;;;;;;1.20;1.10;;;;;;;16.59;64.72;99283.44;5134620;27;20046;-74
2022/06/12 00:45:40;;;;;;;5.35;1.50;;;;;;;16.54;63.78;99277.72;5100748;27;20038;-75
2022/06/12 00:48:33;;;;;;;3.40;1.30;;;;;;;16.50;64.62;99279.78;5130831;27;20039;-74
2022/06/12 00:51:19;;;;;;;2.85;1.45;;;;;;;16.46;65.10;99269.59;5119825;27;20039;-74
2022/06/12 00:54:06;;;;;;;3.10;1.42;;;;;;;16.41;65.46;99269.16;5134365;27;20045;-75
2022/06/12 00:56:55;;;;;;;2.08;1.42;;;;;;;16.44;64.72;99277.66;5135208;27;20107;-73
2022/06/12 00:59:55;;;;;;;1.92;1.42;;;;;;;16.35;66.36;99273.97;5106320;27;20377;-73
2022/06/12 01:02:41;;;;;;;3.92;1.88;;;;;;;16.31;67.26;99277.03;5118778;27;20039;-73
2022/06/12 01:08:31;;;;;;;3.20;1.63;;;;;;;16.31;66.68;99269.09;5142758;27;20038;-72
2022/06/12 01:11:15;;;;;;;3.47;1.67;;;;;;;16.25;67.50;99275.75;5154673;27;20068;-73
2022/06/12 01:14:02;;;;;;;2.30;1.77;;;;;;;16.13;68.94;99267.88;5134465;27;20050;-73
2022/06/12 01:16:48;;;;;;;4.32;2.00;;;;;;;16.03;68.91;99269.63;5125670;27;20084;-73
2022/06/12 01:19:37;;;;;;;4.85;1.65;;;;;;;15.98;68.95;99261.22;5130555;27;20062;-73
2022/06/12 01:22:43;;;;;;;4.70;1.95;;;;;;;15.93;70.31;99256.28;5134827;27;20043;-75
2022/06/12 01:25:41;;;;;;;3.75;2.22;;;;;;;15.95;70.20;99269.38;5118979;27;20035;-75
2022/06/12 01:28:45;;;;;;;4.72;1.90;;;;;;;15.87;71.07;99262.09;5134288;27;20038;-74
2022/06/12 01:31:43;;;;;;;3.08;1.60;;;;;;;15.81;71.56;99263.47;5135087;27;20043;-74
2022/06/12 01:34:32;;;;;;;3.45;1.90;;;;;;;15.77;71.12;99262.88;5136391;27;20049;-74
2022/06/12 01:37:23;;;;;;;4.05;1.90;;;;;;;15.78;70.69;99266.34;5118191;27;20063;-72
2022/06/12 01:40:17;;;;;;;4.28;2.13;;;;;;;15.75;71.04;99267.44;5118217;27;20036;-74
2022/06/12 01:43:22;;;;;;;2.85;2.10;;;;;;;15.74;72.58;99259.63;5133349;27;20063;-74
2022/06/12 01:46:23;;;;;;;2.75;1.95;;;;;;;15.82;71.66;99254.56;5123613;27;20042;-73
2022/06/12 01:49:20;;;;;;;2.67;2.00;;;;;;;15.75;71.71;99253.38;5117736;27;20027;-74
2022/06/12 01:52:22;;;;;;;2.85;1.70;;;;;;;15.79;71.40;99246.88;5132308;27;20031;-73
2022/06/12 01:55:40;;;;;;;2.45;1.50;;;;;;;15.76;71.92;99244.50;5133483;27;20039;-74
2022/06/12 01:58:45;;;;;;;4.15;1.85;;;;;;;15.70;70.91;99237.91;5123171;27;20059;-74
2022/06/12 02:01:45;;;;;;;2.17;1.80;;;;;;;15.70;71.08;99237.91;5104768;27;20035;-73
2022/06/12 02:04:47;;;;;;;3.92;1.70;;;;;;;15.74;69.89;99233.22;5117480;27;20482;-73
2022/06/12 02:07:40;;;;;;;2.17;1.60;;;;;;;15.99;67.14;99239.97;5128110;27;20043;-73
2022/06/12 02:10:33;;;;;;;2.90;1.65;;;;;;;16.05;66.40;99240.41;5133107;27;20035;-72
2022/06/12 02:13:30;;;;;;;2.40;1.50;;;;;;;16.11;66.82;99238.09;5125886;27;20373;-72
2022/06/12 02:16:22;;;;;;;2.78;1.23;;;;;;;16.21;66.80;99240.81;5104053;27;20170;-72
2022/06/12 02:19:17;;;;;;;2.83;1.60;;;;;;;16.21;65.44;99238.16;5132690;27;20079;-72
2022/06/12 02:22:17;;;;;;;2.88;1.77;;;;;;;16.28;65.02;99234.97;5131529;27;20467;-70
2022/06/12 02:25:08;;;;;;;3.08;1.55;;;;;;;16.29;67.34;99240.13;5131935;27;20084;-74
2022/06/12 02:28:04;;;;;;;2.03;1.40;;;;;;;16.29;65.43;99237.50;5132317;27;20122;-74
2022/06/12 02:30:57;;;;;;;1.70;1.38;;;;;;;16.29;67.13;99241.97;5108068;28;20042;-74
2022/06/12 02:33:45;;;;;;;3.05;1.60;;;;;;;16.28;66.53;99238.47;5096763;28;20043;-74
2022/06/12 02:36:41;;;;;;;2.00;1.75;;;;;;;16.23;67.40;99238.03;5111084;28;20038;-72
2022/06/12 02:39:36;;;;;;;3.85;1.63;;;;;;;16.13;68.10;99236.16;5116475;28;20082;-73
2022/06/12 02:42:28;;;;;;;3.25;2.00;;;;;;;16.16;68.09;99240.34;5104327;28;20496;-74
2022/06/12 02:45:40;;;;;;;6.00;2.10;;;;;;;16.06;67.28;99248.22;5132337;28;20072;-74
2022/06/12 02:48:27;;;;;;;2.17;1.77;;;;;;;16.08;67.31;99256.00;5132468;27;20032;-74
2022/06/12 02:51:31;;;;;;;3.10;2.05;;;;;;;16.07;67.37;99257.84;5116817;28;20070;-74
2022/06/12 02:54:42;;;;;;;6.70;1.95;;;;;;;16.08;68.49;99256.84;5132774;28;20091;-74
2022/06/12 02:57:51;;;;;;;3.35;2.00;;;;;;;16.07;67.25;99254.34;5124704;28;20342;-72
2022/06/12 03:00:45;;;;;;;4.85;1.80;;;;;;;16.20;66.72;99255.00;5116303;28;20031;-73
2022/06/12 03:03:46;;;;;;;2.35;1.85;;;;;;;16.08;66.76;99259.50;5126439;28;20042;-73
2022/06/12 03:06:31;;;;;;;4.53;1.80;;;;;;;16.12;66.64;99266.19;5096922;28;20066;-71
2022/06/12 03:09:16;;;;;;;5.10;2.00;;;;;;;16.12;66.01;99266.19;5102079;28;20434;-74
2022/06/12 03:12:01;;;;;;;2.95;1.52;;;;;;;16.17;68.13;99265.81;5151500;28;20035;-73
2022/06/12 03:14:46;;;;;;;2.97;1.70;;;;;;;16.20;65.21;99262.06;5120579;28;20425;-74
2022/06/12 03:17:31;;;;;;;2.40;1.50;;;;;;;16.27;65.07;99265.03;5132533;28;20092;-72
2022/06/12 03:20:16;;;;;;;4.22;1.70;;;;;;;16.24;66.29;99264.31;5131629;27;20030;-73
2022/06/12 03:23:30;;;;;;;3.15;1.45;;;;;;;16.19;65.95;99269.16;5121095;28;20422;-74
2022/06/12 03:26:57;;;;;;;2.88;1.60;;;;;;;16.19;66.10;99268.34;5109689;28;20125;-73
2022/06/12 03:30:00;;;;;;;2.08;1.65;;;;;;;16.18;66.32;99271.94;5113309;28;20118;-74
2022/06/12 03:33:09;;;;;;;2.67;1.48;;;;;;;16.16;66.15;99269.41;5093384;28;20118;-73
2022/06/12 03:36:03;;;;;;;4.15;1.80;;;;;;;16.14;66.39;99276.66;5111084;28;20405;-73
2022/06/12 03:39:05;;;;;;;3.15;1.50;;;;;;;16.13;66.49;99277.59;5106818;28;20106;-74
2022/06/12 03:42:05;;;;;;;2.83;1.75;;;;;;;16.16;67.55;99274.69;5132109;27;20035;-72
2022/06/12 03:45:05;;;;;;;2.75;1.27;;;;;;;16.12;68.01;99279.41;5135808;27;20151;-73
2022/06/12 03:47:58;;;;;;;1.90;1.67;;;;;;;16.10;68.31;99275.22;5119359;27;20140;-71
2022/06/12 03:51:06;;;;;;;3.22;1.67;;;;;;;16.14;67.51;99274.03;5115420;27;20039;-73
2022/06/12 03:54:18;;;;;;;2.38;1.65;;;;;;;16.29;67.95;99277.16;5136111;27;20035;-75
2022/06/12 04:00:20;;;;;;;2.42;1.75;;;;;;;16.27;70.36;99284.41;5133530;27;20067;-74
2022/06/12 04:03:05;;;;;;;;;;;;;;;16.43;69.05;99283.09;5126576;27;20039;-73
2022/06/12 04:06:00;;;;;;;4.50;1.80;;;;;;;16.32;69.14;99284.00;5105307;28;19991;-73
2022/06/12 04:08:53;;;;;;;5.45;1.70;;;;;;;16.25;70.30;99284.50;5129172;27;20115;-73
2022/06/12 04:11:41;;;;;;;3.67;1.92;;;;;;;16.36;69.43;99282.75;5096298;27;20046;-69
2022/06/12 04:14:31;;;;;;;4.93;2.00;;;;;;;16.45;69.42;99294.38;5119533;27;20035;-74
2022/06/12 04:17:15;;;;;;;3.17;1.75;;;;;;;16.48;69.37;99289.63;5113643;27;20485;-71
2022/06/12 04:20:03;;;;;;;4.03;1.90;;;;;;;16.57;68.50;99295.13;5134394;27;20061;-72
2022/06/12 04:23:00;;;;;;;3.47;1.85;;;;;;;16.65;68.23;99294.47;5088734;27;20031;-75
2022/06/12 04:25:54;;;;;;;2.97;1.60;;;;;;;16.84;67.53;99297.19;5129895;27;20363;-71
2022/06/12 04:28:43;;;;;;;2.30;1.70;;;;;;;16.85;66.70;99303.31;5125473;27;20061;-75
2022/06/12 04:31:29;;;;;;;4.90;1.85;;;;;;;16.89;67.78;99296.81;5101548;27;20099;-76
2022/06/12 04:34:22;;;;;;;6.38;2.00;;;;;;;16.96;67.10;99297.09;5133365;27;20540;-71
2022/06/12 04:37:16;;;;;;;2.80;1.73;;;;;;;17.04;66.80;99299.91;5134960;27;20063;-75
2022/06/12 04:40:05;;;;;;;3.28;2.00;;;;;;;17.11;65.98;99313.47;5120226;27;20058;-75
2022/06/12 04:42:49;;;;;;;3.33;1.90;;;;;;;17.29;65.69;99307.53;5133888;27;20043;-75
2022/06/12 04:45:34;;;;;;;3.22;1.77;;;;;;;17.27;65.43;99302.38;5099051;27;20039;-75
2022/06/12 04:48:29;;;;;;;3.80;1.90;;;;;;;17.39;65.23;99302.25;5134566;27;20446;-74
2022/06/12 04:51:14;;;;;;;2.10;1.70;;;;;;;17.45;64.03;99299.06;5118055;27;20091;-74
2022/06/12 04:54:00;;;;;;;3.22;1.85;;;;;;;17.53;64.03;99293.91;5118443;27;20054;-73
2022/06/12 04:56:45;;;;;;;2.90;1.70;;;;;;;17.61;63.42;99298.53;5133973;27;20035;-73
2022/06/12 04:59:30;;;;;;;2.90;1.92;;;;;;;17.78;63.06;99291.72;5134258;27;20039;-74
2022/06/12 05:02:15;;;;;;;3.58;1.80;;;;;;;17.82;62.59;99290.44;5121652;27;20088;-74
2022/06/12 05:04:59;;;;;;;2.92;1.65;;;;;;;17.89;62.05;99285.44;5098209;28;20043;-74
2022/06/12 05:07:44;;;;;;;2.20;1.42;;;;;;;18.01;62.40;99293.22;5113587;27;20063;-71
2022/06/12 05:10:29;;;;;;;2.50;1.60;;;;;;;18.09;61.90;99299.50;5134276;27;20111;-75
2022/06/12 05:13:14;;;;;;;2.35;1.70;;;;;;;18.26;61.05;99297.16;5149634;27;20080;-69
2022/06/12 05:15:59;;;;;;;2.80;1.77;;;;;;;18.34;60.37;99293.78;5141407;27;20060;-74
2022/06/12 05:18:44;;;;;;;2.47;1.48;;;;;;;18.36;60.15;99293.63;5133814;27;20043;-74
2022/06/12 05:21:31;;;;;;;2.35;1.63;;;;;;;18.45;60.31;99290.97;5118259;27;20039;-72
2022/06/12 05:24:16;;;;;;;2.15;1.45;;;;;;;18.60;59.05;99298.47;5118683;27;20034;-74
2022/06/12 05:27:04;;;;;;;1.70;1.23;;;;;;;18.74;58.44;99302.44;5121013;27;20038;-75
2022/06/12 05:29:49;;;;;;;3.35;1.50;;;;;;;18.79;58.26;99297.56;5133028;27;20031;-74
2022/06/12 05:32:34;;;;;;;2.00;1.40;;;;;;;18.91;58.96;99315.94;5102999;27;20100;-75
2022/06/12 05:35:23;;;;;;;3.67;1.73;;;;;;;19.01;58.82;99315.91;5107588;27;20054;-73
2022/06/12 05:38:10;;;;;;;3.05;1.55;;;;;;;19.03;57.90;99312.09;5133114;27;20461;-73
2022/06/12 05:40:55;;;;;;;5.88;1.73;;;;;;;19.11;57.92;99305.28;5134178;27;20039;-74
2022/06/12 05:43:40;;;;;;;2.45;1.67;;;;;;;19.25;58.19;99309.25;5118206;27;20104;-76
2022/06/12 05:46:26;;;;;;;2.97;1.77;;;;;;;19.26;57.36;99318.91;5124321;27;20039;-74
2022/06/12 05:49:11;;;;;;;2.55;1.80;;;;;;;19.26;56.46;99308.28;5133089;27;20121;-74
2022/06/12 05:51:56;;;;;;;3.00;1.38;;;;;;;19.47;56.70;99305.31;5132560;27;20097;-75
2022/06/12 05:54:41;;;;;;;2.78;1.88;;;;;;;19.51;55.29;99301.41;5092045;27;20107;-76
2022/06/12 05:57:26;;;;;;;3.72;1.75;;;;;;;19.65;55.38;99300.03;5132509;27;20412;-74
2022/06/12 06:00:16;;;;;;;5.63;1.90;;;;;;;19.79;55.57;99313.78;5130671;27;20038;-75
2022/06/12 06:03:01;;;;;;;2.47;1.57;;;;;;;19.79;55.26;99319.09;5132806;27;20039;-76
2022/06/12 06:05:48;;;;;;;2.72;1.63;;;;;;;19.61;55.09;99311.97;5124775;27;20390;-72
2022/06/12 06:08:34;;;;;;;2.47;1.33;;;;;;;19.63;56.14;99311.81;5114023;27;20088;-75
2022/06/12 06:11:18;;;;;;;2.33;1.58;;;;;;;19.99;54.27;99309.16;5127152;27;20067;-75
2022/06/12 06:14:03;;;;;;;2.10;1.55;;;;;;;19.94;55.95;99314.91;5132580;27;20039;-75
2022/06/12 06:16:48;;;;;;;5.10;1.90;;;;;;;19.91;55.04;99319.72;5097018;27;20462;-72
2022/06/12 06:19:35;;;;;;;5.43;1.80;;;;;;;19.91;55.08;99319.72;5098738;27;20114;-73
2022/06/12 06:22:20;;;;;;;2.20;1.38;;;;;;;20.12;55.59;99311.44;5132997;27;20058;-75
2022/06/12 06:25:05;;;;;;;4.63;2.08;;;;;;;20.50;55.37;99315.69;5127487;27;20027;-76
2022/06/12 06:27:50;;;;;;;2.78;1.40;;;;;;;20.84;54.21;99322.03;5102877;27;20043;-71
2022/06/12 06:30:37;;;;;;;3.90;1.92;;;;;;;21.03;53.18;99320.97;5129064;27;20080;-74
2022/06/12 06:33:22;;;;;;;2.80;1.85;;;;;;;20.91;53.69;99323.03;5117297;28;20427;-75
2022/06/12 06:36:09;;;;;;;1.80;1.60;;;;;;;21.08;52.99;99318.69;5102809;28;20050;-73
2022/06/12 06:38:55;;;;;;;2.63;1.50;;;;;;;21.40;52.76;99319.78;5100185;28;20107;-73
2022/06/12 06:41:41;;;;;;;4.40;1.75;;;;;;;21.38;52.35;99320.94;5114540;27;20067;-78
2022/06/12 06:47:31;;;;;;;4.35;1.88;;;;;;;21.59;50.87;99322.31;5118357;28;20055;-75
2022/06/12 06:50:17;;;;;;;2.35;1.40;;;;;;;21.52;52.27;99322.97;5116186;28;20047;-74
2022/06/12 06:53:03;;;;;;;2.00;1.42;;;;;;;22.22;50.36;99320.03;5134773;27;20039;-73
2022/06/12 06:55:49;;;;;;;1.70;1.60;;;;;;;22.34;49.97;99328.56;5123007;28;20136;-75
2022/06/12 06:58:35;;;;;;;4.65;2.25;;;;;;;22.38;50.15;99323.69;5127630;27;20053;-76
2022/06/12 07:01:20;;;;;;;4.85;1.88;;;;;;;22.63;49.46;99326.34;5100261;28;20043;-73
2022/06/12 07:04:04;;;;;;;3.78;1.90;;;;;;;22.40;50.04;99327.03;5116644;28;20035;-73
2022/06/12 07:06:49;;;;;;;3.53;1.70;;;;;;;22.53;49.74;99329.19;5110480;28;20055;-75
2022/06/12 07:09:36;;;;;;;2.42;1.65;;;;;;;22.69;49.78;99327.50;5083428;28;20059;-75
2022/06/12 07:12:21;;;;;;;3.55;1.90;;;;;;;22.36;50.40;99329.19;5133098;28;20050;-74
2022/06/12 07:15:07;;;;;;;1.73;1.50;;;;;;;22.92;48.65;99329.44;5150440;27;20034;-75
2022/06/12 07:17:54;;;;;;;2.45;1.80;;;;;;;22.46;50.08;99323.69;5141686;27;20077;-73
2022/06/12 07:20:46;;;;;;;4.70;1.83;;;;;;;22.80;50.15;99329.78;5095544;27;20066;-75
2022/06/12 07:23:31;;;;;;;2.47;1.73;;;;;;;23.11;48.29;99323.69;5120956;27;20041;-77
2022/06/12 07:26:28;;;;;;;5.68;2.00;;;;;;;23.07;48.69;99316.19;5106255;27;20058;-73
2022/06/12 07:29:19;;;;;;;3.30;1.70;;;;;;;22.91;48.51;99319.75;5133373;27;20037;-75
2022/06/12 07:32:05;;;;;;;2.55;1.67;;;;;;;23.47;48.02;99319.69;5135848;27;20043;-76
2022/06/12 07:34:50;;;;;;;3.75;1.77;;;;;;;23.95;47.01;99316.03;5119158;27;20058;-75
2022/06/12 07:37:36;;;;;;;2.03;1.65;;;;;;;23.75;47.47;99308.47;5132101;27;20031;-74
2022/06/12 07:40:27;;;;;;;2.95;1.88;;;;;;;23.49;47.43;99314.16;5136108;27;20039;-76
2022/06/12 07:43:12;;;;;;;4.47;1.60;;;;;;;23.67;46.39;99305.84;5135385;27;20062;-78
2022/06/12 07:45:57;;;;;;;3.22;1.67;;;;;;;24.28;45.86;99306.06;5135448;27;20087;-74
2022/06/12 07:48:43;;;;;;;2.60;1.50;;;;;;;23.55;47.39;99294.72;5135692;27;20035;-78
2022/06/12 07:51:28;;;;;;;4.57;1.92;;;;;;;24.05;46.43;99296.22;5117531;27;20040;-73
2022/06/12 07:54:12;;;;;;;3.88;1.92;;;;;;;23.71;45.86;99301.84;5127589;27;20039;-74
2022/06/12 07:56:58;;;;;;;3.45;1.75;;;;;;;24.33;46.03;99298.31;5135631;27;20111;-76
2022/06/12 07:59:43;;;;;;;4.80;1.90;;;;;;;25.02;43.55;99301.75;5135294;27;20047;-74
2022/06/12 08:02:28;;;;;;;2.55;1.75;;;;;;;24.96;44.49;99302.50;5135947;27;20056;-76
2022/06/12 08:05:19;;;;;;;4.32;1.75;;;;;;;25.50;43.17;99308.50;5136213;27;20038;-74
2022/06/12 08:08:03;;;;;;;2.65;1.88;;;;;;;25.19;42.70;99313.09;5105445;28;20104;-74
2022/06/12 08:10:49;;;;;;;1.95;1.67;;;;;;;25.86;42.78;99306.81;5108400;27;20047;-75
2022/06/12 08:13:34;;;;;;;2.60;1.90;;;;;;;25.78;41.52;99302.41;5119275;27;20045;-74
2022/06/12 08:16:21;;;;;;;3.25;1.60;;;;;;;25.59;42.55;99307.34;5119727;27;20107;-75
2022/06/12 08:20:24;;;;;;;2.50;1.80;;;;;;;25.10;44.50;99298.16;5117824;27;20042;-75
2022/06/12 08:22:12;;;;;;;2.10;1.48;;;;;;;25.54;43.42;99303.59;5121580;27;20096;-77
2022/06/12 08:24:56;;;;;;;3.05;1.77;;;;;;;25.51;44.91;99299.41;5135117;27;20039;-76
2022/06/12 08:27:41;;;;;;;2.05;1.60;;;;;;;25.43;45.10;99308.41;5119870;27;20088;-75
2022/06/12 08:30:26;;;;;;;5.32;2.63;;;;;;;25.94;43.35;99295.94;5119195;27;20027;-75
2022/06/12 08:33:11;;;;;;;3.88;1.75;;;;;;;26.20;42.99;99291.81;5135106;27;20042;-76
2022/06/12 08:35:56;;;;;;;3.10;1.77;;;;;;;26.35;41.83;99276.63;5135368;27;20093;-74
2022/06/12 08:38:43;;;;;;;3.35;1.50;;;;;;;26.07;43.10;99292.53;5122677;27;20038;-74
2022/06/12 08:41:38;;;;;;;3.35;1.65;;;;;;;26.23;41.92;99287.88;5132667;27;20039;-77
2022/06/12 08:44:30;;;;;;;3.60;2.05;;;;;;;25.77;43.32;99289.19;5119415;27;20042;-74
2022/06/12 08:47:46;;;;;;;3.72;1.48;;;;;;;26.72;42.58;99285.31;5127609;27;20122;-74
2022/06/12 08:50:49;;;;;;;3.90;1.65;;;;;;;26.13;43.20;99287.41;5136268;27;20038;-74
2022/06/12 08:53:43;;;;;;;3.70;1.50;;;;;;;25.62;43.69;99295.44;5130799;27;20036;-73
2022/06/12 08:56:45;;;;;;;2.83;1.30;;;;;;;26.01;43.80;99301.38;5134271;27;20031;-75
2022/06/12 08:59:35;;;;;;;3.50;1.42;;;;;;;26.90;41.72;99282.09;5108348;27;20045;-72
2022/06/12 09:02:26;;;;;;;1.80;1.30;;;;;;;26.72;40.24;99281.81;5133935;27;20039;-76
2022/06/12 09:05:26;;;;;;;3.83;2.10;;;;;;;25.95;42.75;99292.22;5103022;27;20133;-75
2022/06/12 09:08:17;;;;;;;2.63;1.23;;;;;;;26.93;41.96;99286.22;5132031;27;20066;-74
2022/06/12 09:11:16;;;;;;;4.72;1.30;;;;;;;27.29;39.31;99287.00;5134640;27;20043;-76
2022/06/12 09:14:18;;;;;;;2.33;1.30;;;;;;;28.14;39.60;99276.75;5141477;27;20035;-73
2022/06/12 09:17:32;;;;;;;2.70;1.60;;;;;;;27.67;39.18;99283.81;5151159;27;20099;-75
2022/06/12 09:20:45;;;;;;;1.80;1.10;;;;;;;27.94;37.53;99284.84;5124031;27;20454;-75
2022/06/12 09:23:52;;;;;;;3.22;1.50;;;;;;;28.05;38.90;99270.78;5135721;27;20035;-74
2022/06/12 09:27:08;;;;;;;2.20;1.13;;;;;;;28.89;36.54;99272.03;5129342;27;20046;-76
2022/06/12 09:30:09;;;;;;;4.20;1.38;;;;;;;27.60;38.59;99266.78;5133063;27;20070;-74
2022/06/12 09:33:28;;;;;;;4.30;1.30;;;;;;;27.82;38.37;99260.41;5101218;27;20031;-76
2022/06/12 09:36:36;;;;;;;3.45;1.50;;;;;;;29.18;36.06;99260.94;5117759;27;20055;-73
2022/06/12 09:39:54;;;;;;;2.30;1.17;;;;;;;28.12;37.51;99252.75;5131841;27;20046;-75
2022/06/12 09:42:54;;;;;;;4.85;1.40;;;;;;;27.70;38.13;99244.09;5126719;27;20054;-76
2022/06/12 09:45:53;;;;;;;2.15;1.33;;;;;;;27.82;39.12;99242.44;5120887;27;20491;-73
2022/06/12 09:49:14;;;;;;;1.92;1.08;;;;;;;29.09;36.68;99247.72;5125648;27;20102;-75
2022/06/12 09:52:34;;;;;;;1.38;1.05;;;;;;;28.91;36.76;99240.31;5101803;27;20058;-76
2022/06/12 09:55:30;;;;;;;1.10;1.00;;;;;;;28.99;36.38;99237.41;5131594;27;20027;-74
2022/06/12 09:58:48;;;;;;;2.03;1.05;;;;;;;28.63;36.27;99227.97;5119505;27;20281;-74
2022/06/12 10:01:38;;;;;;;2.60;1.10;;;;;;;28.88;36.71;99228.09;5133187;27;20077;-73
2022/06/12 10:04:36;;;;;;;1.33;1.00;;;;;;;28.63;36.21;99227.97;5128004;27;20035;-74
2022/06/12 10:07:35;;;;;;;1.52;0.85;;;;;;;28.41;36.51;99223.69;5124006;27;20385;-75
2022/06/12 10:10:24;;;;;;;;;;;;;;;28.84;34.92;99226.84;5123434;27;20046;-75
2022/06/12 10:13:14;;;;;;;1.35;1.15;;;;;;;28.91;34.66;99221.44;5132534;27;20006;-76
2022/06/12 10:16:05;;;;;;;7.95;1.27;;;;;;;29.20;34.60;99215.72;5131810;27;20068;-70
2022/06/12 10:19:00;;;;;;;2.35;0.80;;;;;;;29.13;35.10;99223.84;5133568;27;20043;-74
2022/06/12 10:21:58;;;;;;;1.73;1.05;;;;;;;30.12;32.38;99217.06;5138538;27;20386;-73
2022/06/12 10:24:43;;;;;;;2.08;1.00;;;;;;;31.12;32.24;99209.88;5125497;27;20044;-76
2022/06/12 10:27:43;;;;;;;1.98;1.20;;;;;;;29.79;33.38;99210.09;5128098;27;20035;-76
2022/06/12 10:30:40;;;;;;;2.92;1.27;;;;;;;30.10;33.53;99208.34;5132987;28;20043;-73
2022/06/12 10:33:32;;;;;;;1.65;0.90;;;;;;;30.57;32.09;99208.91;5132800;28;20042;-76
2022/06/12 10:36:29;;;;;;;2.90;1.10;;;;;;;30.36;32.25;99198.34;5132167;27;20059;-77
2022/06/12 10:39:15;;;;;;;1.38;0.88;;;;;;;30.68;29.29;99194.63;5102687;27;20039;-77
2022/06/12 10:42:03;;;;;;;3.40;1.10;;;;;;;29.47;32.19;99197.47;5103148;28;20062;-74
2022/06/12 10:44:56;;;;;;;1.80;0.70;;;;;;;31.32;32.32;99182.50;5121028;28;20039;-74
2022/06/12 10:47:45;;;;;;;1.65;0.80;;;;;;;29.85;32.30;99198.41;5131911;27;20054;-75
2022/06/12 10:50:29;;;;;;;3.45;1.02;;;;;;;30.06;32.20;99185.56;5109463;28;20043;-75
2022/06/12 10:53:17;;;;;;;0.90;0.80;;;;;;;29.53;34.54;99187.66;5120353;27;20047;-75
2022/06/12 10:56:08;;;;;;;1.58;0.93;;;;;;;30.26;32.75;99189.91;5137095;27;20092;-76
2022/06/12 10:59:02;;;;;;;3.10;1.08;;;;;;;30.77;31.33;99186.19;5125665;27;20050;-78
2022/06/12 11:01:56;;;;;;;2.03;1.00;;;;;;;31.00;31.12;99187.34;5134742;27;20039;-76
2022/06/12 11:05:07;;;;;;;1.67;1.05;;;;;;;31.01;31.63;99181.72;5106952;27;20039;-77
2022/06/12 11:08:04;;;;;;;4.72;1.25;;;;;;;30.03;31.48;99177.88;5136425;27;20084;-75
2022/06/12 11:10:58;;;;;;;3.08;0.98;;;;;;;30.77;31.55;99176.19;5136741;27;20027;-77
2022/06/12 11:14:09;;;;;;;1.55;1.10;;;;;;;31.48;30.56;99169.38;5114810;27;20043;-78
2022/06/12 11:17:12;;;;;;;1.55;1.20;;;;;;;30.35;30.97;99166.97;5153385;27;20085;-72
2022/06/12 11:20:14;;;;;;;2.67;0.95;;;;;;;30.55;31.94;99163.19;5104165;27;20101;-76
2022/06/12 11:23:15;;;;;;;2.08;1.00;;;;;;;30.93;30.03;99163.16;5120860;27;20530;-75
2022/06/12 11:26:54;;;;;;;1.30;0.95;;;;;;;30.39;31.03;99156.53;5136017;27;20039;-79
2022/06/12 11:29:39;;;;;;;1.25;0.88;;;;;;;31.53;29.42;99155.97;5047337;27;20048;-76
2022/06/12 11:32:42;;;;;;;1.63;0.98;;;;;;;31.13;30.23;99153.88;5135695;27;20073;-76
2022/06/12 11:35:32;;;;;;;3.72;0.95;;;;;;;31.90;28.21;99148.66;5135879;27;20035;-77
2022/06/12 11:38:27;;;;;;;1.17;0.85;;;;;;;32.80;28.96;99152.91;5130329;27;20031;-74
2022/06/12 11:41:36;;;;;;;1.67;0.93;;;;;;;32.14;28.05;99138.63;5136186;27;20039;-78
2022/06/12 11:44:39;;;;;;;1.13;0.98;;;;;;;31.78;28.83;99140.56;5112388;27;20050;-75
2022/06/12 11:47:45;;;;;;;1.48;0.95;;;;;;;31.31;30.02;99142.16;5135672;27;20043;-76
2022/06/12 11:50:41;;;;;;;1.55;0.85;;;;;;;31.04;31.51;99140.72;5112687;28;20039;-76
2022/06/12 11:53:30;;;;;;;1.98;0.98;;;;;;;31.67;29.87;99139.50;5118643;27;20053;-78
2022/06/12 11:56:38;;;;;;;1.15;0.90;;;;;;;32.22;29.10;99137.44;5117284;27;20050;-75
2022/06/12 11:59:48;;;;;;;3.53;0.70;;;;;;;32.17;27.66;99129.22;5113745;27;20039;-83
2022/06/12 12:02:40;;;;;;;3.38;1.10;;;;;;;31.80;28.60;99127.59;5108505;27;20043;-77
2022/06/12 12:05:45;;;;;;;2.13;1.13;;;;;;;31.89;29.34;99119.94;5114726;27;20138;-78
2022/06/12 12:08:51;;;;;;;1.10;0.82;;;;;;;32.32;29.39;99123.25;5124752;27;20035;-79
2022/06/12 12:11:43;;;;;;;2.00;1.10;;;;;;;31.96;29.16;99118.78;5135103;27;20109;-78
2022/06/12 12:14:34;;;;;;;1.40;0.80;;;;;;;32.66;27.98;99117.16;5135017;27;20047;-77
2022/06/12 12:17:24;;;;;;;1.45;0.70;;;;;;;31.43;29.95;99110.56;5129197;27;20042;-78
2022/06/12 12:20:16;;;;;;;;;;;;;;;31.54;28.92;99108.91;5112477;27;20035;-78
2022/06/12 12:23:05;;;;;;;2.20;1.00;;;;;;;32.67;29.39;99116.09;5141785;27;20290;-77
2022/06/12 12:25:52;;;;;;;1.50;0.70;;;;;;;31.63;28.12;99109.34;5111115;27;20475;-77
2022/06/12 12:28:45;;;;;;;0.98;0.80;;;;;;;32.96;28.08;99105.19;5104118;28;20035;-79
2022/06/12 12:31:31;;;;;;;2.10;1.05;;;;;;;33.20;28.15;99102.34;5112009;27;20084;-77
2022/06/12 12:34:19;;;;;;;1.65;0.95;;;;;;;32.33;28.63;99106.75;5123736;27;20084;-77
2022/06/12 12:43:55;;;;;;;1.77;0.90;;;;;;;31.50;29.65;99094.19;5099173;28;20028;-80
2022/06/12 12:46:51;;;;;;;1.70;0.95;;;;;;;32.47;28.59;99092.94;5129935;27;20043;-78
2022/06/12 12:49:39;;;;;;;1.23;0.82;;;;;;;33.07;28.38;99087.19;5129691;27;20045;-78
2022/06/12 12:52:23;;;;;;;4.70;0.70;;;;;;;32.05;29.90;99089.44;5102489;28;20114;-77
2022/06/12 12:55:28;;;;;;;1.60;1.00;;;;;;;32.22;28.34;99090.56;5133721;27;20039;-76
2022/06/12 12:58:16;;;;;;;1.30;0.70;;;;;;;32.74;28.34;99083.41;5124596;27;20043;-78
2022/06/12 13:01:18;;;;;;;1.88;1.08;;;;;;;31.58;28.37;99082.19;5134475;27;20042;-80
2022/06/12 13:04:19;;;;;;;2.90;0.93;;;;;;;32.46;28.49;99077.75;5104371;27;20497;-75
2022/06/12 13:07:34;;;;;;;2.55;0.70;;;;;;;31.30;29.25;99084.53;5118982;27;20062;-80
2022/06/12 13:10:30;;;;;;;2.15;0.70;;;;;;;31.38;28.74;99071.69;5118739;27;20043;-80
2022/06/12 13:13:24;;;;;;;1.55;0.90;;;;;;;30.73;29.44;99086.63;5093246;27;20668;-80
2022/06/12 13:16:15;;;;;;;1.55;0.80;;;;;;;31.41;28.29;99063.13;5131736;27;20123;-79
2022/06/12 13:19:10;;;;;;;1.95;0.90;;;;;;;31.58;28.76;99064.06;5151476;27;20051;-76
2022/06/12 13:22:07;;;;;;;4.75;0.80;;;;;;;31.25;31.49;99062.78;5097896;28;20114;-77
2022/06/12 13:25:03;;;;;;;1.77;0.80;;;;;;;30.38;28.46;99068.44;5116885;27;20063;-80
2022/06/12 13:27:54;;;;;;;2.25;0.73;;;;;;;30.75;28.33;99070.19;5110630;27;20031;-78
2022/06/12 13:30:40;;;;;;;1.48;0.80;;;;;;;30.87;29.19;99062.13;5119442;27;20068;-81
2022/06/12 13:33:46;;;;;;;1.23;0.75;;;;;;;31.77;28.40;99052.28;5119778;27;20103;-80
2022/06/12 13:36:50;;;;;;;1.50;0.70;;;;;;;30.73;29.79;99053.41;5105025;27;20070;-79
2022/06/12 13:39:41;;;;;;;1.85;0.80;;;;;;;31.28;28.41;99048.78;5118671;27;20449;-79
2022/06/12 13:42:28;;;;;;;1.63;0.50;;;;;;;31.39;28.00;99046.31;5134533;27;20039;-79
2022/06/12 13:45:23;;;;;;;1.65;0.70;;;;;;;30.98;28.92;99046.97;5127140;27;20046;-80
2022/06/12 13:48:35;;;;;;;0.77;0.60;;;;;;;31.03;28.13;99038.16;5106436;27;20039;-78
2022/06/12 13:51:32;;;;;;;0.88;0.70;;;;;;;31.32;27.79;99035.59;5118629;27;20039;-77